sensor_id;sensor_type;location;lat;lon;timestamp;P1;durP1;ratioP1;P2;durP2;ratioP2
11191;SDS011;5652;48.406;10.820;2023-01-08T00:00:16;26.07;;;16.27;;
11191;SDS011;5652;48.406;10.820;2023-01-08T00:02:43;25.45;;;16.05;;
11191;SDS011;5652;48.406;10.820;2023-01-08T00:05:10;23.55;;;15.60;;
11191;SDS011;5652;48.406;10.820;2023-01-08T00:07:37;26.73;;;16.80;;
11191;SDS011;5652;48.406;10.820;2023-01-08T00:10:04;27.77;;;17.80;;
11191;SDS011;5652;48.406;10.820;2023-01-08T00:12:33;24.58;;;16.60;;
11191;SDS011;5652;48.406;10.820;2023-01-08T00:15:00;25.77;;;16.47;;
11191;SDS011;5652;48.406;10.820;2023-01-08T00:17:27;25.63;;;16.60;;
11191;SDS011;5652;48.406;10.820;2023-01-08T00:19:54;25.15;;;15.95;;
11191;SDS011;5652;48.406;10.820;2023-01-08T00:22:21;25.80;;;16.63;;
11191;SDS011;5652;48.406;10.820;2023-01-08T00:24:49;26.95;;;16.60;;
11191;SDS011;5652;48.406;10.820;2023-01-08T00:27:16;23.38;;;15.73;;
11191;SDS011;5652;48.406;10.820;2023-01-08T00:29:44;25.20;;;16.45;;
11191;SDS011;5652;48.406;10.820;2023-01-08T00:32:11;23.60;;;15.53;;
11191;SDS011;5652;48.406;10.820;2023-01-08T00:34:38;25.10;;;16.00;;
11191;SDS011;5652;48.406;10.820;2023-01-08T00:37:05;23.83;;;15.40;;
11191;SDS011;5652;48.406;10.820;2023-01-08T00:39:33;24.77;;;15.60;;
11191;SDS011;5652;48.406;10.820;2023-01-08T00:42:00;24.65;;;16.13;;
11191;SDS011;5652;48.406;10.820;2023-01-08T00:44:27;24.25;;;15.55;;
11191;SDS011;5652;48.406;10.820;2023-01-08T00:46:56;23.60;;;15.20;;
11191;SDS011;5652;48.406;10.820;2023-01-08T00:49:23;21.88;;;14.73;;
11191;SDS011;5652;48.406;10.820;2023-01-08T00:51:50;21.70;;;14.37;;
11191;SDS011;5652;48.406;10.820;2023-01-08T00:54:17;22.08;;;14.63;;
11191;SDS011;5652;48.406;10.820;2023-01-08T00:56:44;23.03;;;14.73;;
11191;SDS011;5652;48.406;10.820;2023-01-08T00:59:11;20.90;;;14.50;;
11191;SDS011;5652;48.406;10.820;2023-01-08T01:01:38;20.08;;;13.90;;
11191;SDS011;5652;48.406;10.820;2023-01-08T01:04:08;21.55;;;14.38;;
11191;SDS011;5652;48.406;10.820;2023-01-08T01:06:35;20.58;;;13.63;;
11191;SDS011;5652;48.406;10.820;2023-01-08T01:09:02;21.90;;;13.77;;
11191;SDS011;5652;48.406;10.820;2023-01-08T01:11:29;23.47;;;13.63;;
11191;SDS011;5652;48.406;10.820;2023-01-08T01:13:56;21.30;;;14.30;;
11191;SDS011;5652;48.406;10.820;2023-01-08T01:16:23;22.63;;;14.43;;
11191;SDS011;5652;48.406;10.820;2023-01-08T01:18:51;20.02;;;13.10;;
11191;SDS011;5652;48.406;10.820;2023-01-08T01:21:22;19.80;;;13.02;;
11191;SDS011;5652;48.406;10.820;2023-01-08T01:23:51;20.83;;;13.10;;
11191;SDS011;5652;48.406;10.820;2023-01-08T01:26:19;21.13;;;13.60;;
11191;SDS011;5652;48.406;10.820;2023-01-08T01:28:47;18.92;;;12.82;;
11191;SDS011;5652;48.406;10.820;2023-01-08T01:31:14;20.77;;;13.48;;
11191;SDS011;5652;48.406;10.820;2023-01-08T01:33:42;21.08;;;14.02;;
11191;SDS011;5652;48.406;10.820;2023-01-08T01:36:09;19.75;;;12.90;;
11191;SDS011;5652;48.406;10.820;2023-01-08T01:38:38;19.95;;;13.57;;
11191;SDS011;5652;48.406;10.820;2023-01-08T01:41:22;20.15;;;13.02;;
11191;SDS011;5652;48.406;10.820;2023-01-08T01:43:49;23.48;;;13.88;;
11191;SDS011;5652;48.406;10.820;2023-01-08T01:46:22;22.10;;;13.75;;
11191;SDS011;5652;48.406;10.820;2023-01-08T01:48:50;23.17;;;14.63;;
11191;SDS011;5652;48.406;10.820;2023-01-08T01:51:18;22.15;;;14.93;;
11191;SDS011;5652;48.406;10.820;2023-01-08T01:53:47;25.23;;;15.07;;
11191;SDS011;5652;48.406;10.820;2023-01-08T01:56:15;22.45;;;14.68;;
11191;SDS011;5652;48.406;10.820;2023-01-08T01:58:42;24.38;;;15.07;;
11191;SDS011;5652;48.406;10.820;2023-01-08T02:01:09;22.10;;;13.52;;
11191;SDS011;5652;48.406;10.820;2023-01-08T02:03:37;20.25;;;13.38;;
11191;SDS011;5652;48.406;10.820;2023-01-08T02:06:06;21.67;;;13.80;;
11191;SDS011;5652;48.406;10.820;2023-01-08T02:08:38;21.05;;;13.45;;
11191;SDS011;5652;48.406;10.820;2023-01-08T02:11:10;18.88;;;12.93;;
11191;SDS011;5652;48.406;10.820;2023-01-08T02:13:38;19.83;;;12.65;;
11191;SDS011;5652;48.406;10.820;2023-01-08T02:16:08;20.15;;;12.43;;
11191;SDS011;5652;48.406;10.820;2023-01-08T02:18:40;20.20;;;12.73;;
11191;SDS011;5652;48.406;10.820;2023-01-08T02:21:11;20.25;;;12.30;;
11191;SDS011;5652;48.406;10.820;2023-01-08T02:23:41;19.00;;;12.23;;
11191;SDS011;5652;48.406;10.820;2023-01-08T02:26:12;19.77;;;12.70;;
11191;SDS011;5652;48.406;10.820;2023-01-08T02:28:42;19.40;;;12.77;;
11191;SDS011;5652;48.406;10.820;2023-01-08T02:31:11;20.00;;;13.20;;
11191;SDS011;5652;48.406;10.820;2023-01-08T02:33:39;21.90;;;14.40;;
11191;SDS011;5652;48.406;10.820;2023-01-08T02:36:12;22.42;;;14.35;;
11191;SDS011;5652;48.406;10.820;2023-01-08T02:38:41;22.17;;;13.85;;
11191;SDS011;5652;48.406;10.820;2023-01-08T02:41:11;20.92;;;14.07;;
11191;SDS011;5652;48.406;10.820;2023-01-08T02:43:40;21.90;;;13.70;;
11191;SDS011;5652;48.406;10.820;2023-01-08T02:46:08;20.20;;;13.30;;
11191;SDS011;5652;48.406;10.820;2023-01-08T02:48:37;20.60;;;13.35;;
11191;SDS011;5652;48.406;10.820;2023-01-08T02:51:06;18.83;;;12.80;;
11191;SDS011;5652;48.406;10.820;2023-01-08T02:53:35;21.13;;;13.32;;
11191;SDS011;5652;48.406;10.820;2023-01-08T02:56:04;20.33;;;12.75;;
11191;SDS011;5652;48.406;10.820;2023-01-08T02:58:32;22.20;;;13.68;;
11191;SDS011;5652;48.406;10.820;2023-01-08T03:01:02;22.50;;;13.25;;
11191;SDS011;5652;48.406;10.820;2023-01-08T03:03:30;17.98;;;11.75;;
11191;SDS011;5652;48.406;10.820;2023-01-08T03:06:00;18.23;;;12.10;;
11191;SDS011;5652;48.406;10.820;2023-01-08T03:08:28;18.60;;;12.03;;
11191;SDS011;5652;48.406;10.820;2023-01-08T03:10:57;17.45;;;11.95;;
11191;SDS011;5652;48.406;10.820;2023-01-08T03:13:29;19.50;;;11.40;;
11191;SDS011;5652;48.406;10.820;2023-01-08T03:15:58;16.83;;;11.23;;
11191;SDS011;5652;48.406;10.820;2023-01-08T03:18:28;17.85;;;11.20;;
11191;SDS011;5652;48.406;10.820;2023-01-08T03:20:58;17.47;;;11.30;;
11191;SDS011;5652;48.406;10.820;2023-01-08T03:23:26;15.10;;;10.52;;
11191;SDS011;5652;48.406;10.820;2023-01-08T03:25:53;16.20;;;10.68;;
11191;SDS011;5652;48.406;10.820;2023-01-08T03:28:21;16.30;;;10.63;;
11191;SDS011;5652;48.406;10.820;2023-01-08T03:30:54;15.85;;;10.10;;
11191;SDS011;5652;48.406;10.820;2023-01-08T03:33:21;16.05;;;10.38;;
11191;SDS011;5652;48.406;10.820;2023-01-08T03:35:52;15.18;;;10.25;;
11191;SDS011;5652;48.406;10.820;2023-01-08T03:38:21;15.93;;;10.33;;
11191;SDS011;5652;48.406;10.820;2023-01-08T03:40:50;16.17;;;10.17;;
11191;SDS011;5652;48.406;10.820;2023-01-08T03:43:18;15.40;;;10.27;;
11191;SDS011;5652;48.406;10.820;2023-01-08T03:45:46;14.20;;;9.37;;
11191;SDS011;5652;48.406;10.820;2023-01-08T03:48:14;13.60;;;9.45;;
11191;SDS011;5652;48.406;10.820;2023-01-08T03:50:42;15.27;;;9.23;;
11191;SDS011;5652;48.406;10.820;2023-01-08T03:53:10;14.60;;;9.88;;
11191;SDS011;5652;48.406;10.820;2023-01-08T03:55:37;11.77;;;8.90;;
11191;SDS011;5652;48.406;10.820;2023-01-08T03:58:05;13.50;;;8.80;;
11191;SDS011;5652;48.406;10.820;2023-01-08T04:00:32;13.55;;;9.23;;
11191;SDS011;5652;48.406;10.820;2023-01-08T04:02:59;14.25;;;9.65;;
11191;SDS011;5652;48.406;10.820;2023-01-08T04:05:26;16.00;;;9.60;;
11191;SDS011;5652;48.406;10.820;2023-01-08T04:07:53;13.27;;;9.32;;
11191;SDS011;5652;48.406;10.820;2023-01-08T04:10:23;13.15;;;8.98;;
11191;SDS011;5652;48.406;10.820;2023-01-08T04:12:50;13.70;;;9.13;;
11191;SDS011;5652;48.406;10.820;2023-01-08T04:15:17;15.73;;;10.02;;
11191;SDS011;5652;48.406;10.820;2023-01-08T04:17:44;13.60;;;9.73;;
11191;SDS011;5652;48.406;10.820;2023-01-08T04:20:11;14.43;;;10.05;;
11191;SDS011;5652;48.406;10.820;2023-01-08T04:22:39;17.38;;;11.23;;
11191;SDS011;5652;48.406;10.820;2023-01-08T04:25:17;16.27;;;11.20;;
11191;SDS011;5652;48.406;10.820;2023-01-08T04:27:45;15.52;;;10.60;;
11191;SDS011;5652;48.406;10.820;2023-01-08T04:30:13;16.05;;;10.82;;
11191;SDS011;5652;48.406;10.820;2023-01-08T04:32:40;16.40;;;11.25;;
11191;SDS011;5652;48.406;10.820;2023-01-08T04:35:07;16.60;;;10.75;;
11191;SDS011;5652;48.406;10.820;2023-01-08T04:37:34;16.35;;;10.45;;
11191;SDS011;5652;48.406;10.820;2023-01-08T04:40:01;15.60;;;10.57;;
11191;SDS011;5652;48.406;10.820;2023-01-08T04:42:29;15.65;;;10.80;;
11191;SDS011;5652;48.406;10.820;2023-01-08T04:44:57;17.10;;;10.30;;
11191;SDS011;5652;48.406;10.820;2023-01-08T04:47:24;14.45;;;10.00;;
11191;SDS011;5652;48.406;10.820;2023-01-08T04:49:51;15.25;;;10.43;;
11191;SDS011;5652;48.406;10.820;2023-01-08T04:52:18;16.00;;;10.63;;
11191;SDS011;5652;48.406;10.820;2023-01-08T04:54:45;16.17;;;11.20;;
11191;SDS011;5652;48.406;10.820;2023-01-08T04:57:13;17.20;;;11.75;;
11191;SDS011;5652;48.406;10.820;2023-01-08T04:59:40;17.67;;;12.10;;
11191;SDS011;5652;48.406;10.820;2023-01-08T05:02:08;18.67;;;11.30;;
11191;SDS011;5652;48.406;10.820;2023-01-08T05:04:36;19.15;;;12.43;;
11191;SDS011;5652;48.406;10.820;2023-01-08T05:07:03;18.23;;;11.40;;
11191;SDS011;5652;48.406;10.820;2023-01-08T05:09:32;19.05;;;11.95;;
11191;SDS011;5652;48.406;10.820;2023-01-08T05:11:59;18.55;;;12.38;;
11191;SDS011;5652;48.406;10.820;2023-01-08T05:14:26;20.17;;;12.40;;
11191;SDS011;5652;48.406;10.820;2023-01-08T05:16:54;18.83;;;12.50;;
11191;SDS011;5652;48.406;10.820;2023-01-08T05:19:22;20.70;;;12.57;;
11191;SDS011;5652;48.406;10.820;2023-01-08T05:21:49;21.65;;;12.82;;
11191;SDS011;5652;48.406;10.820;2023-01-08T05:24:16;18.23;;;12.52;;
11191;SDS011;5652;48.406;10.820;2023-01-08T05:26:43;18.45;;;12.00;;
11191;SDS011;5652;48.406;10.820;2023-01-08T05:29:10;17.20;;;11.85;;
11191;SDS011;5652;48.406;10.820;2023-01-08T05:31:37;16.30;;;10.48;;
11191;SDS011;5652;48.406;10.820;2023-01-08T05:34:04;13.52;;;9.73;;
11191;SDS011;5652;48.406;10.820;2023-01-08T05:36:33;15.10;;;9.88;;
11191;SDS011;5652;48.406;10.820;2023-01-08T05:39:00;13.15;;;9.20;;
11191;SDS011;5652;48.406;10.820;2023-01-08T05:41:27;12.57;;;8.90;;
11191;SDS011;5652;48.406;10.820;2023-01-08T05:43:54;12.40;;;8.63;;
11191;SDS011;5652;48.406;10.820;2023-01-08T05:46:21;15.20;;;8.80;;
11191;SDS011;5652;48.406;10.820;2023-01-08T05:48:48;11.93;;;8.60;;
11191;SDS011;5652;48.406;10.820;2023-01-08T05:51:16;11.85;;;8.43;;
11191;SDS011;5652;48.406;10.820;2023-01-08T05:53:44;12.35;;;8.88;;
11191;SDS011;5652;48.406;10.820;2023-01-08T05:56:11;12.07;;;8.50;;
11191;SDS011;5652;48.406;10.820;2023-01-08T05:58:38;13.18;;;8.48;;
11191;SDS011;5652;48.406;10.820;2023-01-08T06:01:06;11.70;;;8.43;;
11191;SDS011;5652;48.406;10.820;2023-01-08T06:03:34;14.02;;;7.95;;
11191;SDS011;5652;48.406;10.820;2023-01-08T06:06:01;10.88;;;7.90;;
11191;SDS011;5652;48.406;10.820;2023-01-08T06:08:29;11.13;;;7.85;;
11191;SDS011;5652;48.406;10.820;2023-01-08T06:10:58;10.70;;;7.80;;
11191;SDS011;5652;48.406;10.820;2023-01-08T06:13:26;9.98;;;7.30;;
11191;SDS011;5652;48.406;10.820;2023-01-08T06:15:53;12.35;;;7.78;;
11191;SDS011;5652;48.406;10.820;2023-01-08T06:18:20;10.82;;;7.70;;
11191;SDS011;5652;48.406;10.820;2023-01-08T06:20:47;13.23;;;9.07;;
11191;SDS011;5652;48.406;10.820;2023-01-08T06:23:14;10.82;;;8.13;;
11191;SDS011;5652;48.406;10.820;2023-01-08T06:25:41;11.00;;;7.78;;
11191;SDS011;5652;48.406;10.820;2023-01-08T06:28:10;11.55;;;7.05;;
11191;SDS011;5652;48.406;10.820;2023-01-08T06:30:37;8.40;;;6.50;;
11191;SDS011;5652;48.406;10.820;2023-01-08T06:33:04;8.68;;;6.10;;
11191;SDS011;5652;48.406;10.820;2023-01-08T06:35:31;8.73;;;5.85;;
11191;SDS011;5652;48.406;10.820;2023-01-08T06:37:58;9.40;;;6.40;;
11191;SDS011;5652;48.406;10.820;2023-01-08T06:40:25;8.27;;;6.00;;
11191;SDS011;5652;48.406;10.820;2023-01-08T06:42:52;8.35;;;6.10;;
11191;SDS011;5652;48.406;10.820;2023-01-08T06:45:21;8.73;;;6.20;;
11191;SDS011;5652;48.406;10.820;2023-01-08T06:47:48;9.68;;;6.05;;
11191;SDS011;5652;48.406;10.820;2023-01-08T06:50:15;9.90;;;6.00;;
11191;SDS011;5652;48.406;10.820;2023-01-08T06:52:43;7.68;;;5.70;;
11191;SDS011;5652;48.406;10.820;2023-01-08T06:55:10;8.85;;;5.35;;
11191;SDS011;5652;48.406;10.820;2023-01-08T06:57:37;9.25;;;5.88;;
11191;SDS011;5652;48.406;10.820;2023-01-08T07:00:06;8.73;;;6.13;;
11191;SDS011;5652;48.406;10.820;2023-01-08T07:02:34;8.48;;;5.97;;
11191;SDS011;5652;48.406;10.820;2023-01-08T07:05:02;8.90;;;6.45;;
11191;SDS011;5652;48.406;10.820;2023-01-08T07:07:29;10.30;;;6.40;;
11191;SDS011;5652;48.406;10.820;2023-01-08T07:09:56;10.38;;;5.70;;
11191;SDS011;5652;48.406;10.820;2023-01-08T07:12:23;9.02;;;6.10;;
11191;SDS011;5652;48.406;10.820;2023-01-08T07:14:50;8.05;;;5.82;;
11191;SDS011;5652;48.406;10.820;2023-01-08T07:17:17;7.00;;;5.47;;
11191;SDS011;5652;48.406;10.820;2023-01-08T07:19:46;7.10;;;5.50;;
11191;SDS011;5652;48.406;10.820;2023-01-08T07:22:13;7.87;;;5.40;;
11191;SDS011;5652;48.406;10.820;2023-01-08T07:24:41;8.48;;;5.85;;
11191;SDS011;5652;48.406;10.820;2023-01-08T07:27:08;8.00;;;5.65;;
11191;SDS011;5652;48.406;10.820;2023-01-08T07:29:36;6.63;;;5.03;;
11191;SDS011;5652;48.406;10.820;2023-01-08T07:32:03;7.70;;;5.68;;
11191;SDS011;5652;48.406;10.820;2023-01-08T07:34:31;9.20;;;6.25;;
11191;SDS011;5652;48.406;10.820;2023-01-08T07:37:00;9.73;;;6.75;;
11191;SDS011;5652;48.406;10.820;2023-01-08T07:39:27;9.60;;;6.65;;
11191;SDS011;5652;48.406;10.820;2023-01-08T07:41:54;9.65;;;6.43;;
11191;SDS011;5652;48.406;10.820;2023-01-08T07:44:21;9.07;;;6.30;;
11191;SDS011;5652;48.406;10.820;2023-01-08T07:46:48;9.32;;;6.40;;
11191;SDS011;5652;48.406;10.820;2023-01-08T07:49:15;7.68;;;6.00;;
11191;SDS011;5652;48.406;10.820;2023-01-08T07:51:42;7.72;;;5.38;;
11191;SDS011;5652;48.406;10.820;2023-01-08T07:54:13;8.52;;;5.90;;
11191;SDS011;5652;48.406;10.820;2023-01-08T07:56:40;8.32;;;5.63;;
11191;SDS011;5652;48.406;10.820;2023-01-08T07:59:07;7.35;;;5.82;;
11191;SDS011;5652;48.406;10.820;2023-01-08T08:01:34;9.97;;;6.50;;
11191;SDS011;5652;48.406;10.820;2023-01-08T08:04:04;9.35;;;6.65;;
11191;SDS011;5652;48.406;10.820;2023-01-08T08:06:31;9.68;;;6.93;;
11191;SDS011;5652;48.406;10.820;2023-01-08T08:08:58;10.13;;;7.03;;
11191;SDS011;5652;48.406;10.820;2023-01-08T08:11:29;10.13;;;7.30;;
11191;SDS011;5652;48.406;10.820;2023-01-08T08:13:56;15.30;;;9.00;;
11191;SDS011;5652;48.406;10.820;2023-01-08T08:16:23;12.95;;;8.00;;
11191;SDS011;5652;48.406;10.820;2023-01-08T08:18:50;10.50;;;6.97;;
11191;SDS011;5652;48.406;10.820;2023-01-08T08:21:17;10.68;;;7.18;;
11191;SDS011;5652;48.406;10.820;2023-01-08T08:23:44;8.10;;;5.90;;
11191;SDS011;5652;48.406;10.820;2023-01-08T08:26:11;8.38;;;6.50;;
11191;SDS011;5652;48.406;10.820;2023-01-08T08:28:40;7.93;;;5.85;;
11191;SDS011;5652;48.406;10.820;2023-01-08T08:31:07;8.55;;;6.40;;
11191;SDS011;5652;48.406;10.820;2023-01-08T08:33:34;8.85;;;6.28;;
11191;SDS011;5652;48.406;10.820;2023-01-08T08:36:01;7.88;;;5.82;;
11191;SDS011;5652;48.406;10.820;2023-01-08T08:38:28;8.23;;;5.75;;
11191;SDS011;5652;48.406;10.820;2023-01-08T08:40:55;8.70;;;5.75;;
11191;SDS011;5652;48.406;10.820;2023-01-08T08:43:23;7.50;;;5.80;;
11191;SDS011;5652;48.406;10.820;2023-01-08T08:45:53;7.63;;;6.30;;
11191;SDS011;5652;48.406;10.820;2023-01-08T08:48:21;6.75;;;4.80;;
11191;SDS011;5652;48.406;10.820;2023-01-08T08:50:48;6.95;;;4.93;;
11191;SDS011;5652;48.406;10.820;2023-01-08T08:53:15;6.00;;;4.68;;
11191;SDS011;5652;48.406;10.820;2023-01-08T08:55:42;6.03;;;4.35;;
11191;SDS011;5652;48.406;10.820;2023-01-08T08:58:10;6.43;;;4.90;;
11191;SDS011;5652;48.406;10.820;2023-01-08T09:00:38;7.07;;;4.90;;
11191;SDS011;5652;48.406;10.820;2023-01-08T09:03:07;6.90;;;5.03;;
11191;SDS011;5652;48.406;10.820;2023-01-08T09:05:36;6.28;;;5.00;;
11191;SDS011;5652;48.406;10.820;2023-01-08T09:08:03;7.10;;;5.05;;
11191;SDS011;5652;48.406;10.820;2023-01-08T09:10:30;7.22;;;5.43;;
11191;SDS011;5652;48.406;10.820;2023-01-08T09:12:57;6.88;;;5.50;;
11191;SDS011;5652;48.406;10.820;2023-01-08T09:15:24;8.48;;;5.70;;
11191;SDS011;5652;48.406;10.820;2023-01-08T09:17:52;8.80;;;6.13;;
11191;SDS011;5652;48.406;10.820;2023-01-08T09:20:21;9.88;;;6.60;;
11191;SDS011;5652;48.406;10.820;2023-01-08T09:22:48;8.10;;;6.40;;
11191;SDS011;5652;48.406;10.820;2023-01-08T09:25:15;9.82;;;6.68;;
11191;SDS011;5652;48.406;10.820;2023-01-08T09:27:42;12.63;;;6.85;;
11191;SDS011;5652;48.406;10.820;2023-01-08T09:30:10;11.27;;;6.72;;
11191;SDS011;5652;48.406;10.820;2023-01-08T09:32:37;9.35;;;6.22;;
11191;SDS011;5652;48.406;10.820;2023-01-08T09:35:04;11.57;;;8.07;;
11191;SDS011;5652;48.406;10.820;2023-01-08T09:37:33;9.10;;;6.47;;
11191;SDS011;5652;48.406;10.820;2023-01-08T09:40:00;8.27;;;6.25;;
11191;SDS011;5652;48.406;10.820;2023-01-08T09:42:27;8.32;;;6.43;;
11191;SDS011;5652;48.406;10.820;2023-01-08T09:44:55;12.75;;;8.40;;
11191;SDS011;5652;48.406;10.820;2023-01-08T09:47:24;11.00;;;8.35;;
11191;SDS011;5652;48.406;10.820;2023-01-08T09:49:53;12.65;;;8.48;;
11191;SDS011;5652;48.406;10.820;2023-01-08T09:52:21;15.55;;;11.25;;
11191;SDS011;5652;48.406;10.820;2023-01-08T09:54:49;12.25;;;9.48;;
11191;SDS011;5652;48.406;10.820;2023-01-08T09:57:17;10.02;;;7.43;;
11191;SDS011;5652;48.406;10.820;2023-01-08T09:59:45;8.73;;;6.23;;
11191;SDS011;5652;48.406;10.820;2023-01-08T10:02:14;9.68;;;6.47;;
11191;SDS011;5652;48.406;10.820;2023-01-08T10:04:41;10.13;;;7.25;;
11191;SDS011;5652;48.406;10.820;2023-01-08T10:07:10;10.00;;;6.93;;
11191;SDS011;5652;48.406;10.820;2023-01-08T10:09:39;9.73;;;6.90;;
11191;SDS011;5652;48.406;10.820;2023-01-08T10:12:09;8.75;;;6.90;;
11191;SDS011;5652;48.406;10.820;2023-01-08T10:14:38;7.95;;;6.20;;
11191;SDS011;5652;48.406;10.820;2023-01-08T10:17:14;8.27;;;5.80;;
11191;SDS011;5652;48.406;10.820;2023-01-08T10:19:43;7.93;;;6.13;;
11191;SDS011;5652;48.406;10.820;2023-01-08T10:22:10;8.50;;;5.95;;
11191;SDS011;5652;48.406;10.820;2023-01-08T10:24:38;8.40;;;6.40;;
11191;SDS011;5652;48.406;10.820;2023-01-08T10:27:07;9.20;;;6.43;;
11191;SDS011;5652;48.406;10.820;2023-01-08T10:29:35;10.57;;;7.70;;
11191;SDS011;5652;48.406;10.820;2023-01-08T10:32:06;10.20;;;7.13;;
11191;SDS011;5652;48.406;10.820;2023-01-08T10:34:38;8.40;;;5.70;;
11191;SDS011;5652;48.406;10.820;2023-01-08T10:37:12;7.35;;;5.55;;
11191;SDS011;5652;48.406;10.820;2023-01-08T10:39:43;9.13;;;7.20;;
11191;SDS011;5652;48.406;10.820;2023-01-08T10:42:10;8.80;;;6.68;;
11191;SDS011;5652;48.406;10.820;2023-01-08T10:44:43;10.73;;;7.50;;
11191;SDS011;5652;48.406;10.820;2023-01-08T10:47:12;20.17;;;11.77;;
11191;SDS011;5652;48.406;10.820;2023-01-08T10:49:42;9.98;;;7.45;;
11191;SDS011;5652;48.406;10.820;2023-01-08T10:52:20;10.45;;;8.05;;
11191;SDS011;5652;48.406;10.820;2023-01-08T10:54:48;12.00;;;7.45;;
11191;SDS011;5652;48.406;10.820;2023-01-08T10:57:18;11.60;;;8.55;;
11191;SDS011;5652;48.406;10.820;2023-01-08T10:59:47;9.97;;;7.60;;
11191;SDS011;5652;48.406;10.820;2023-01-08T11:02:17;9.23;;;7.07;;
11191;SDS011;5652;48.406;10.820;2023-01-08T11:04:46;10.55;;;7.65;;
11191;SDS011;5652;48.406;10.820;2023-01-08T11:07:17;8.88;;;6.25;;
11191;SDS011;5652;48.406;10.820;2023-01-08T11:09:45;10.38;;;5.80;;
11191;SDS011;5652;48.406;10.820;2023-01-08T11:12:33;7.90;;;5.65;;
11191;SDS011;5652;48.406;10.820;2023-01-08T11:15:03;9.10;;;5.47;;
11191;SDS011;5652;48.406;10.820;2023-01-08T11:17:31;26.30;;;19.17;;
11191;SDS011;5652;48.406;10.820;2023-01-08T11:20:05;8.53;;;5.33;;
11191;SDS011;5652;48.406;10.820;2023-01-08T11:22:32;21.35;;;14.05;;
11191;SDS011;5652;48.406;10.820;2023-01-08T11:25:00;18.17;;;10.68;;
11191;SDS011;5652;48.406;10.820;2023-01-08T11:27:28;36.42;;;21.05;;
11191;SDS011;5652;48.406;10.820;2023-01-08T11:29:58;9.20;;;6.40;;
11191;SDS011;5652;48.406;10.820;2023-01-08T11:32:31;8.45;;;6.05;;
11191;SDS011;5652;48.406;10.820;2023-01-08T11:35:03;10.00;;;7.22;;
11191;SDS011;5652;48.406;10.820;2023-01-08T11:37:32;9.75;;;6.00;;
11191;SDS011;5652;48.406;10.820;2023-01-08T11:40:00;8.30;;;5.93;;
11191;SDS011;5652;48.406;10.820;2023-01-08T11:42:32;7.40;;;5.45;;
11191;SDS011;5652;48.406;10.820;2023-01-08T11:45:08;12.75;;;7.25;;
11191;SDS011;5652;48.406;10.820;2023-01-08T11:47:43;16.90;;;9.55;;
11191;SDS011;5652;48.406;10.820;2023-01-08T11:50:14;7.97;;;5.17;;
11191;SDS011;5652;48.406;10.820;2023-01-08T11:52:47;7.90;;;5.22;;
11191;SDS011;5652;48.406;10.820;2023-01-08T11:55:22;6.07;;;4.60;;
11191;SDS011;5652;48.406;10.820;2023-01-08T11:57:57;7.65;;;4.90;;
11191;SDS011;5652;48.406;10.820;2023-01-08T12:00:36;6.32;;;4.60;;
11191;SDS011;5652;48.406;10.820;2023-01-08T12:03:10;6.77;;;4.90;;
11191;SDS011;5652;48.406;10.820;2023-01-08T12:05:43;7.72;;;5.55;;
11191;SDS011;5652;48.406;10.820;2023-01-08T12:08:15;7.35;;;5.53;;
11191;SDS011;5652;48.406;10.820;2023-01-08T12:10:48;9.32;;;5.78;;
11191;SDS011;5652;48.406;10.820;2023-01-08T12:13:23;9.82;;;7.00;;
11191;SDS011;5652;48.406;10.820;2023-01-08T12:15:57;9.65;;;6.47;;
11191;SDS011;5652;48.406;10.820;2023-01-08T12:18:33;8.38;;;5.93;;
11191;SDS011;5652;48.406;10.820;2023-01-08T12:21:03;7.97;;;6.13;;
11191;SDS011;5652;48.406;10.820;2023-01-08T12:23:35;7.68;;;5.30;;
11191;SDS011;5652;48.406;10.820;2023-01-08T12:26:08;7.15;;;5.15;;
11191;SDS011;5652;48.406;10.820;2023-01-08T12:28:50;7.22;;;4.75;;
11191;SDS011;5652;48.406;10.820;2023-01-08T12:31:25;17.40;;;12.67;;
11191;SDS011;5652;48.406;10.820;2023-01-08T12:33:57;18.98;;;13.77;;
11191;SDS011;5652;48.406;10.820;2023-01-08T12:36:26;14.27;;;9.73;;
11191;SDS011;5652;48.406;10.820;2023-01-08T12:38:57;11.10;;;8.27;;
11191;SDS011;5652;48.406;10.820;2023-01-08T12:41:25;13.40;;;9.82;;
11191;SDS011;5652;48.406;10.820;2023-01-08T12:43:54;12.50;;;8.90;;
11191;SDS011;5652;48.406;10.820;2023-01-08T12:46:23;14.07;;;9.95;;
11191;SDS011;5652;48.406;10.820;2023-01-08T12:48:52;12.68;;;9.80;;
11191;SDS011;5652;48.406;10.820;2023-01-08T12:51:25;12.38;;;9.00;;
11191;SDS011;5652;48.406;10.820;2023-01-08T12:53:55;11.48;;;8.20;;
11191;SDS011;5652;48.406;10.820;2023-01-08T12:56:25;10.63;;;8.10;;
11191;SDS011;5652;48.406;10.820;2023-01-08T12:59:03;12.27;;;8.43;;
11191;SDS011;5652;48.406;10.820;2023-01-08T13:01:34;8.65;;;6.97;;
11191;SDS011;5652;48.406;10.820;2023-01-08T13:04:03;9.48;;;7.10;;
11191;SDS011;5652;48.406;10.820;2023-01-08T13:06:34;11.98;;;9.75;;
11191;SDS011;5652;48.406;10.820;2023-01-08T13:09:01;9.23;;;6.00;;
11191;SDS011;5652;48.406;10.820;2023-01-08T13:11:30;8.75;;;5.75;;
11191;SDS011;5652;48.406;10.820;2023-01-08T13:14:01;9.98;;;6.18;;
11191;SDS011;5652;48.406;10.820;2023-01-08T13:16:29;9.35;;;6.90;;
11191;SDS011;5652;48.406;10.820;2023-01-08T13:18:57;8.93;;;6.18;;
11191;SDS011;5652;48.406;10.820;2023-01-08T13:21:29;8.63;;;6.65;;
11191;SDS011;5652;48.406;10.820;2023-01-08T13:24:05;11.30;;;7.13;;
11191;SDS011;5652;48.406;10.820;2023-01-08T13:26:34;11.13;;;8.23;;
11191;SDS011;5652;48.406;10.820;2023-01-08T13:29:05;10.63;;;8.45;;
11191;SDS011;5652;48.406;10.820;2023-01-08T13:31:37;12.98;;;8.02;;
11191;SDS011;5652;48.406;10.820;2023-01-08T13:34:16;11.15;;;7.28;;
11191;SDS011;5652;48.406;10.820;2023-01-08T13:36:53;11.75;;;7.70;;
11191;SDS011;5652;48.406;10.820;2023-01-08T13:39:22;12.32;;;7.20;;
11191;SDS011;5652;48.406;10.820;2023-01-08T13:41:56;11.70;;;7.18;;
11191;SDS011;5652;48.406;10.820;2023-01-08T13:44:25;8.30;;;6.10;;
11191;SDS011;5652;48.406;10.820;2023-01-08T13:46:53;8.02;;;5.68;;
11191;SDS011;5652;48.406;10.820;2023-01-08T13:49:22;9.27;;;6.30;;
11191;SDS011;5652;48.406;10.820;2023-01-08T13:51:52;9.60;;;6.43;;
11191;SDS011;5652;48.406;10.820;2023-01-08T13:54:20;7.07;;;5.50;;
11191;SDS011;5652;48.406;10.820;2023-01-08T13:56:52;7.32;;;5.07;;
11191;SDS011;5652;48.406;10.820;2023-01-08T13:59:25;5.70;;;4.45;;
11191;SDS011;5652;48.406;10.820;2023-01-08T14:01:54;8.05;;;4.88;;
11191;SDS011;5652;48.406;10.820;2023-01-08T14:04:21;10.20;;;6.00;;
11191;SDS011;5652;48.406;10.820;2023-01-08T14:06:49;13.68;;;8.68;;
11191;SDS011;5652;48.406;10.820;2023-01-08T14:09:18;10.20;;;6.80;;
11191;SDS011;5652;48.406;10.820;2023-01-08T14:11:46;10.55;;;5.95;;
11191;SDS011;5652;48.406;10.820;2023-01-08T14:14:16;8.95;;;6.25;;
11191;SDS011;5652;48.406;10.820;2023-01-08T14:16:43;8.48;;;6.40;;
11191;SDS011;5652;48.406;10.820;2023-01-08T14:19:12;9.90;;;7.40;;
11191;SDS011;5652;48.406;10.820;2023-01-08T14:21:44;13.55;;;9.20;;
11191;SDS011;5652;48.406;10.820;2023-01-08T14:24:12;12.40;;;7.53;;
11191;SDS011;5652;48.406;10.820;2023-01-08T14:26:41;10.88;;;7.40;;
11191;SDS011;5652;48.406;10.820;2023-01-08T14:29:11;9.13;;;7.00;;
11191;SDS011;5652;48.406;10.820;2023-01-08T14:31:46;10.27;;;7.05;;
11191;SDS011;5652;48.406;10.820;2023-01-08T14:34:13;8.93;;;6.85;;
11191;SDS011;5652;48.406;10.820;2023-01-08T14:36:41;10.93;;;6.90;;
11191;SDS011;5652;48.406;10.820;2023-01-08T14:39:11;9.63;;;7.40;;
11191;SDS011;5652;48.406;10.820;2023-01-08T14:41:38;12.60;;;7.50;;
11191;SDS011;5652;48.406;10.820;2023-01-08T14:44:24;10.25;;;8.15;;